createdAt,value
2018-08-17T00:02:30.502Z,14.60
2018-08-17T00:05:35.479Z,14.65
2018-08-17T00:08:39.936Z,14.60
2018-08-17T00:11:44.370Z,14.57
2018-08-17T00:14:48.773Z,14.57
2018-08-17T00:17:53.380Z,14.55
2018-08-17T00:20:57.781Z,14.50
2018-08-17T00:24:02.333Z,14.53
2018-08-17T00:27:07.068Z,14.48
2018-08-17T00:30:11.523Z,14.50
2018-08-17T00:33:15.959Z,14.43
2018-08-17T00:36:21.696Z,14.31
2018-08-17T00:39:26.085Z,14.32
2018-08-17T00:42:31.129Z,14.36
2018-08-17T00:45:35.679Z,14.31
2018-08-17T00:48:40.082Z,14.32
2018-08-17T00:51:44.763Z,14.26
2018-08-17T00:54:49.283Z,14.24
2018-08-17T00:57:53.757Z,14.24
2018-08-17T01:00:58.246Z,14.36
2018-08-17T01:04:02.663Z,14.38
2018-08-17T01:07:07.093Z,14.36
2018-08-17T01:10:12.139Z,14.34
2018-08-17T01:13:16.822Z,14.26
2018-08-17T01:16:22.447Z,14.26
2018-08-17T01:19:26.830Z,14.18
2018-08-17T01:22:31.342Z,14.14
2018-08-17T01:25:36.711Z,14.06
2018-08-17T01:28:41.121Z,14.12
2018-08-17T01:31:46.279Z,14.08
2018-08-17T01:34:50.653Z,14.10
2018-08-17T01:37:55.084Z,14.13
2018-08-17T01:40:59.692Z,14.05
2018-08-17T01:44:04.265Z,14.14
2018-08-17T01:47:08.638Z,13.98
2018-08-17T01:50:13.254Z,14.08
2018-08-17T01:53:17.652Z,13.88
2018-08-17T01:56:22.030Z,13.83
2018-08-17T01:59:26.602Z,13.74
2018-08-17T02:02:31.126Z,13.73
2018-08-17T02:05:35.972Z,13.66
2018-08-17T02:08:40.366Z,13.51
2018-08-17T02:11:44.753Z,13.58
2018-08-17T02:14:49.246Z,13.50
2018-08-17T02:17:53.541Z,13.48
2018-08-17T02:20:57.927Z,13.47
2018-08-17T02:24:02.314Z,13.48
2018-08-17T02:27:06.706Z,13.51
2018-08-17T02:30:11.041Z,13.59
2018-08-17T02:33:15.384Z,13.51
2018-08-17T02:36:20.149Z,13.39
2018-08-17T02:39:24.585Z,13.30
2018-08-17T02:42:28.973Z,13.31
2018-08-17T02:45:33.826Z,13.26
2018-08-17T02:48:38.313Z,13.25
2018-08-17T02:51:42.830Z,13.15
2018-08-17T02:54:47.211Z,13.21
2018-08-17T02:57:51.567Z,13.14
2018-08-17T03:00:55.931Z,13.16
2018-08-17T03:04:00.379Z,13.17
2018-08-17T03:07:04.845Z,13.17
2018-08-17T03:10:09.360Z,13.13
2018-08-17T03:13:13.863Z,13.12
2018-08-17T03:16:18.849Z,13.07
2018-08-17T03:19:23.273Z,13.01
2018-08-17T03:22:27.757Z,12.99
2018-08-17T03:25:32.829Z,12.96
2018-08-17T03:28:37.444Z,12.98
2018-08-17T03:31:41.862Z,12.96
2018-08-17T03:34:46.300Z,12.90
2018-08-17T03:37:50.917Z,12.90
2018-08-17T03:40:55.415Z,12.91
2018-08-17T03:44:00.104Z,12.86
2018-08-17T03:47:04.582Z,12.87
2018-08-17T03:50:09.234Z,12.85
2018-08-17T03:53:13.674Z,12.83
2018-08-17T03:56:18.269Z,12.86
2018-08-17T03:59:22.673Z,12.88
2018-08-17T04:02:27.651Z,12.89
2018-08-17T04:05:32.385Z,12.81
2018-08-17T04:08:36.851Z,12.88
2018-08-17T04:11:41.365Z,12.97
2018-08-17T04:14:45.992Z,13.04
2018-08-17T04:17:50.493Z,12.96
2018-08-17T04:20:54.916Z,12.90
2018-08-17T04:23:59.756Z,13.04
2018-08-17T04:27:04.114Z,12.97
2018-08-17T04:30:08.739Z,12.92
2018-08-17T04:33:13.771Z,13.06
2018-08-17T04:36:19.782Z,13.10
2018-08-17T04:39:24.285Z,13.01
2018-08-17T04:42:28.749Z,13.03
2018-08-17T04:45:33.094Z,13.37
2018-08-17T04:48:37.627Z,13.46
2018-08-17T04:51:42.081Z,13.32
2018-08-17T04:54:46.705Z,13.31
2018-08-17T04:57:51.138Z,13.34
2018-08-17T05:00:55.760Z,13.44
2018-08-17T05:04:00.457Z,13.39
2018-08-17T05:07:04.833Z,13.40
2018-08-17T05:10:09.453Z,13.48
2018-08-17T05:13:13.828Z,13.66
2018-08-17T05:16:18.717Z,13.82
2018-08-17T05:19:23.096Z,13.90
2018-08-17T05:22:27.690Z,14.00
2018-08-17T05:25:32.107Z,14.14
2018-08-17T05:28:36.655Z,14.18
2018-08-17T05:31:41.621Z,14.29
2018-08-17T05:34:46.071Z,14.46
2018-08-17T05:37:50.878Z,14.63
2018-08-17T05:40:55.495Z,14.82
2018-08-17T05:43:59.998Z,14.95
2018-08-17T05:47:05.162Z,15.17
2018-08-17T05:50:10.277Z,15.37
2018-08-17T05:53:14.649Z,15.67
2018-08-17T05:56:19.135Z,16.32
2018-08-17T05:59:24.125Z,17.51
2018-08-17T06:02:28.503Z,19.82
2018-08-17T06:05:33.302Z,21.63
2018-08-17T06:08:38.483Z,23.43
2018-08-17T06:11:42.931Z,24.85
2018-08-17T06:14:47.492Z,25.29
2018-08-17T06:17:52.299Z,25.77
2018-08-17T06:20:56.912Z,25.56
2018-08-17T06:24:01.317Z,25.02
2018-08-17T06:27:06.961Z,24.57
2018-08-17T06:30:14.213Z,26.13
2018-08-17T06:33:18.632Z,26.05
2018-08-17T06:36:23.105Z,27.12
2018-08-17T06:39:27.570Z,27.80
2018-08-17T06:42:32.460Z,28.49
2018-08-17T06:45:37.034Z,28.73
2018-08-17T06:48:41.510Z,28.25
2018-08-17T06:51:45.954Z,28.52
2018-08-17T06:54:50.425Z,28.98
2018-08-17T06:57:54.806Z,29.47
2018-08-17T07:00:59.298Z,28.36
2018-08-17T07:04:03.755Z,27.67
2018-08-17T07:07:08.144Z,25.83
2018-08-17T07:10:13.694Z,27.68
2018-08-17T07:13:19.193Z,28.45
2018-08-17T07:16:23.699Z,28.86
2018-08-17T07:19:28.051Z,29.44
2018-08-17T07:22:32.535Z,30.08
2018-08-17T07:25:38.059Z,30.64
2018-08-17T07:28:42.500Z,30.74
2018-08-17T07:31:46.923Z,30.69
2018-08-17T07:34:51.900Z,29.92
2018-08-17T07:37:56.468Z,28.28
2018-08-17T07:41:00.933Z,25.85
2018-08-17T07:44:05.730Z,25.38
2018-08-17T07:47:11.304Z,27.41
2018-08-17T07:50:17.683Z,26.31
2018-08-17T07:53:22.210Z,24.66
2018-08-17T07:56:26.590Z,26.93
2018-08-17T07:59:32.037Z,27.73
2018-08-17T08:02:37.257Z,27.14
2018-08-17T08:05:41.760Z,26.02
2018-08-17T08:08:46.133Z,27.00
2018-08-17T08:11:50.516Z,28.36
2018-08-17T08:14:55.003Z,28.24
2018-08-17T08:17:59.599Z,28.54
2018-08-17T08:21:04.118Z,28.53
2018-08-17T08:24:08.469Z,28.44
2018-08-17T08:27:13.998Z,28.93
2018-08-17T08:30:19.080Z,27.07
2018-08-17T08:33:23.519Z,26.24
2018-08-17T08:36:27.982Z,27.76
2018-08-17T08:39:32.373Z,27.65
2018-08-17T08:42:36.840Z,28.71
2018-08-17T08:45:41.466Z,28.73
2018-08-17T08:48:46.108Z,27.01
2018-08-17T08:51:51.044Z,27.96
2018-08-17T08:54:55.468Z,28.52
2018-08-17T08:57:59.874Z,28.65
2018-08-17T09:01:04.584Z,27.83
2018-08-17T09:04:09.052Z,28.70
2018-08-17T09:07:14.218Z,28.67
2018-08-17T09:10:18.784Z,28.85
2018-08-17T09:13:23.149Z,28.92
2018-08-17T09:16:27.818Z,28.45
2018-08-17T09:19:32.198Z,28.65
2018-08-17T09:22:37.507Z,28.07
2018-08-17T09:25:42.180Z,28.07
2018-08-17T09:28:46.671Z,28.07
2018-08-17T09:31:53.043Z,26.99
2018-08-17T09:34:57.743Z,26.39
2018-08-17T09:38:02.254Z,26.85
2018-08-17T09:41:06.980Z,27.05
2018-08-17T09:44:11.440Z,27.18
2018-08-17T09:47:16.051Z,27.05
2018-08-17T09:50:20.466Z,26.84
2018-08-17T09:53:25.216Z,26.77
2018-08-17T09:56:29.646Z,26.30
2018-08-17T09:59:34.014Z,26.47
2018-08-17T10:02:44.339Z,26.73
2018-08-17T10:07:56.608Z,27.08
2018-08-17T10:11:01.285Z,27.67
2018-08-17T10:14:05.763Z,27.46
2018-08-17T10:17:10.404Z,27.25
2018-08-17T10:20:20.073Z,27.43
2018-08-17T10:23:25.562Z,27.67
2018-08-17T10:26:30.068Z,26.79
2018-08-17T10:29:34.508Z,26.19
2018-08-17T10:32:44.019Z,26.62
2018-08-17T10:35:48.710Z,27.09
2018-08-17T10:38:53.155Z,27.33
2018-08-17T10:41:57.586Z,27.17
2018-08-17T10:45:02.717Z,27.26
2018-08-17T10:48:07.234Z,27.51
2018-08-17T10:51:11.758Z,27.16
2018-08-17T10:54:16.324Z,26.87
2018-08-17T10:57:20.855Z,26.71
2018-08-17T11:00:25.438Z,26.41
2018-08-17T11:03:29.903Z,26.53
2018-08-17T11:06:34.552Z,26.94
2018-08-17T11:09:39.409Z,27.12
2018-08-17T11:12:45.846Z,27.39
2018-08-17T11:15:50.308Z,27.70
2018-08-17T11:18:54.875Z,27.29
2018-08-17T11:21:59.359Z,27.05
2018-08-17T11:25:06.236Z,27.18
2018-08-17T11:28:11.275Z,27.28
2018-08-17T11:31:15.956Z,27.18
2018-08-17T11:34:20.462Z,26.93
2018-08-17T11:37:24.958Z,26.57
2018-08-17T11:40:29.498Z,26.69
2018-08-17T11:43:34.205Z,26.76
2018-08-17T11:46:40.377Z,27.01
2018-08-17T11:49:44.950Z,27.34
2018-08-17T11:52:54.834Z,27.68
2018-08-17T11:55:59.278Z,27.64
2018-08-17T11:59:03.877Z,27.67
2018-08-17T12:02:08.464Z,28.13
2018-08-17T12:05:13.140Z,28.55
2018-08-17T12:08:17.680Z,28.81
2018-08-17T12:11:22.158Z,28.94
2018-08-17T12:14:26.758Z,28.72
2018-08-17T12:17:31.646Z,28.86
2018-08-17T12:21:18.265Z,29.03
2018-08-17T12:24:24.442Z,28.89
2018-08-17T12:27:28.686Z,28.67
2018-08-17T12:30:33.226Z,28.87
2018-08-17T12:33:37.650Z,28.74
2018-08-17T12:36:42.830Z,28.74
2018-08-17T12:39:47.277Z,28.82
2018-08-17T12:42:51.646Z,28.84
2018-08-17T12:45:56.278Z,29.01
2018-08-17T12:49:00.698Z,28.43
2018-08-17T12:52:05.182Z,28.44
2018-08-17T12:55:09.782Z,28.35
2018-08-17T12:58:16.870Z,28.66
2018-08-17T13:01:21.360Z,28.24
2018-08-17T13:04:26.821Z,27.85
2018-08-17T13:07:31.159Z,27.57
2018-08-17T13:10:36.613Z,27.57
2018-08-17T13:13:40.998Z,27.91
2018-08-17T13:16:45.458Z,28.32
2018-08-17T13:19:49.900Z,28.40
2018-08-17T13:22:54.329Z,28.69
2018-08-17T13:25:58.973Z,28.95
2018-08-17T13:29:03.615Z,29.00
2018-08-17T13:32:08.125Z,29.14
2018-08-17T13:35:13.514Z,29.05
2018-08-17T13:38:17.933Z,29.24
2018-08-17T13:41:23.485Z,29.52
2018-08-17T13:44:28.153Z,29.09
2018-08-17T13:47:32.513Z,28.75
2018-08-17T13:50:37.257Z,28.74
2018-08-17T13:53:41.685Z,28.89
2018-08-17T13:56:46.209Z,28.91
2018-08-17T13:59:50.618Z,28.55
2018-08-17T14:02:55.187Z,28.38
2018-08-17T14:05:59.992Z,28.38
2018-08-17T14:09:05.591Z,28.32
2018-08-17T14:12:10.990Z,28.14
2018-08-17T14:15:15.725Z,28.02
2018-08-17T14:18:20.145Z,28.10
2018-08-17T14:21:25.290Z,28.05
2018-08-17T14:24:30.081Z,28.06
2018-08-17T14:27:34.513Z,28.24
2018-08-17T14:30:39.234Z,28.25
2018-08-17T14:33:44.496Z,28.03
2018-08-17T14:36:48.870Z,27.86
2018-08-17T14:39:53.684Z,27.94
2018-08-17T14:42:58.166Z,28.01
2018-08-17T14:46:02.685Z,28.03
2018-08-17T14:49:07.058Z,28.10
2018-08-17T14:52:15.613Z,28.10
2018-08-17T14:55:20.121Z,27.91
2018-08-17T14:58:24.641Z,27.78
2018-08-17T15:01:29.113Z,27.81
2018-08-17T15:04:33.626Z,27.97
2018-08-17T15:07:38.118Z,27.96
2018-08-17T15:10:44.569Z,27.92
2018-08-17T15:13:49.032Z,28.00
2018-08-17T15:16:53.424Z,28.00
2018-08-17T15:19:58.005Z,27.92
2018-08-17T15:23:03.481Z,27.96
2018-08-17T15:26:08.215Z,27.93
2018-08-17T15:29:12.677Z,27.84
2018-08-17T15:32:17.374Z,27.99
2018-08-17T15:35:22.003Z,27.94
2018-08-17T15:38:26.714Z,27.89
2018-08-17T15:41:31.150Z,28.01
2018-08-17T15:44:35.949Z,28.02
2018-08-17T15:47:40.594Z,28.01
2018-08-17T15:50:44.996Z,27.99
2018-08-17T15:53:49.978Z,27.94
2018-08-17T15:56:54.721Z,27.87
2018-08-17T15:59:59.149Z,27.74
2018-08-17T16:03:04.289Z,27.59
2018-08-17T16:06:08.854Z,27.68
2018-08-17T16:09:14.078Z,27.66
2018-08-17T16:12:18.579Z,27.65
2018-08-17T16:15:23.851Z,27.83
2018-08-17T16:18:29.212Z,27.84
2018-08-17T16:21:35.185Z,27.72
2018-08-17T16:24:40.805Z,27.61
2018-08-17T16:27:45.876Z,27.62
2018-08-17T16:30:50.585Z,27.57
2018-08-17T16:33:55.291Z,27.49
2018-08-17T16:36:59.701Z,27.47
2018-08-17T16:40:04.360Z,27.29
2018-08-17T16:43:08.942Z,27.36
2018-08-17T16:46:14.048Z,27.31
2018-08-17T16:49:18.504Z,27.30
2018-08-17T16:52:23.641Z,27.19
2018-08-17T16:55:28.073Z,27.16
2018-08-17T16:58:32.983Z,27.16
2018-08-17T17:01:37.392Z,28.52
2018-08-17T17:04:42.959Z,30.06
2018-08-17T17:07:47.537Z,30.14
2018-08-17T17:10:52.014Z,29.03
2018-08-17T17:13:56.666Z,28.26
2018-08-17T17:17:01.154Z,27.67
2018-08-17T17:20:06.830Z,27.27
2018-08-17T17:23:12.510Z,26.92
2018-08-17T17:26:18.320Z,26.54
2018-08-17T17:29:23.031Z,26.34
2018-08-17T17:32:27.593Z,26.13
2018-08-17T17:35:32.312Z,25.90
2018-08-17T17:38:36.873Z,25.46
2018-08-17T17:41:41.384Z,25.28
2018-08-17T17:44:46.321Z,25.08
2018-08-17T17:47:50.868Z,25.01
2018-08-17T17:50:55.240Z,24.65
2018-08-17T17:53:59.649Z,24.30
2018-08-17T17:57:08.188Z,24.04
2018-08-17T18:00:13.420Z,23.75
2018-08-17T18:03:18.259Z,23.46
2018-08-17T18:06:23.345Z,23.27
2018-08-17T18:09:28.703Z,23.16
2018-08-17T18:12:33.514Z,22.91
2018-08-17T18:15:37.973Z,22.69
2018-08-17T18:18:42.753Z,22.48
2018-08-17T18:21:51.546Z,22.29
2018-08-17T18:25:07.006Z,22.16
2018-08-17T18:28:12.140Z,22.00
2018-08-17T18:31:16.946Z,21.84
2018-08-17T18:34:21.707Z,21.66
2018-08-17T18:37:26.334Z,21.56
2018-08-17T18:40:31.114Z,21.43
2018-08-17T18:43:35.719Z,21.27
2018-08-17T18:46:40.279Z,21.13
2018-08-17T18:49:44.638Z,21.03
2018-08-17T18:52:49.162Z,20.93
2018-08-17T18:55:53.617Z,20.79
2018-08-17T18:58:58.299Z,20.67
2018-08-17T19:02:04.954Z,20.58
2018-08-17T19:05:10.462Z,20.47
2018-08-17T19:08:14.887Z,20.33
2018-08-17T19:11:19.371Z,20.22
2018-08-17T19:14:24.278Z,20.15
2018-08-17T19:17:35.414Z,20.12
2018-08-17T19:20:39.881Z,19.99
2018-08-17T19:23:44.433Z,19.89
2018-08-17T19:26:49.064Z,19.84
2018-08-17T19:29:54.046Z,19.72
2018-08-17T19:33:03.167Z,19.63
2018-08-17T19:36:08.491Z,19.58
2018-08-17T19:39:21.009Z,19.47
2018-08-17T19:42:26.707Z,19.34
2018-08-17T19:45:31.458Z,19.27
2018-08-17T19:48:36.322Z,19.16
2018-08-17T19:51:41.165Z,19.09
2018-08-17T19:54:45.765Z,19.14
2018-08-17T19:57:50.259Z,19.06
2018-08-17T20:00:54.913Z,18.88
2018-08-17T20:03:59.525Z,18.83
2018-08-17T20:07:04.432Z,18.76
2018-08-17T20:10:11.118Z,18.70
2018-08-17T20:13:15.877Z,18.69
2018-08-17T20:16:26.235Z,18.60
2018-08-17T20:19:36.997Z,18.53
2018-08-17T20:22:42.005Z,18.46
2018-08-17T20:25:46.650Z,18.40
2018-08-17T20:28:51.483Z,18.33
2018-08-17T20:31:56.408Z,18.31
2018-08-17T20:35:01.245Z,18.24
2018-08-17T20:38:06.065Z,18.18
2018-08-17T20:41:10.899Z,18.15
2018-08-17T20:44:15.437Z,18.04
2018-08-17T20:47:19.939Z,18.04
2018-08-17T20:50:24.471Z,18.01
2018-08-17T20:53:29.562Z,17.91
2018-08-17T20:56:33.928Z,17.92
2018-08-17T20:59:38.557Z,17.89
2018-08-17T21:02:42.964Z,17.84
2018-08-17T21:05:49.266Z,17.81
2018-08-17T21:08:53.755Z,17.72
2018-08-17T21:11:58.795Z,17.78
2018-08-17T21:15:03.348Z,17.99
2018-08-17T21:18:07.847Z,17.75
2018-08-17T21:21:12.233Z,17.63
2018-08-17T21:24:16.633Z,17.68
2018-08-17T21:27:20.979Z,17.64
2018-08-17T21:30:25.604Z,17.51
2018-08-17T21:33:30.011Z,17.42
2018-08-17T21:36:34.357Z,17.37
2018-08-17T21:39:38.711Z,17.36
2018-08-17T21:42:43.146Z,17.28
2018-08-17T21:45:48.902Z,17.39
2018-08-17T21:48:53.326Z,17.26
2018-08-17T21:52:02.262Z,17.51
2018-08-17T21:55:06.723Z,17.48
2018-08-17T21:58:11.111Z,17.37
2018-08-17T22:01:15.536Z,17.46
2018-08-17T22:04:20.304Z,17.66
2018-08-17T22:07:25.392Z,17.64
2018-08-17T22:10:30.421Z,17.61
2018-08-17T22:13:36.071Z,17.57
2018-08-17T22:16:40.646Z,17.55
2018-08-17T22:19:45.254Z,17.51
2018-08-17T22:22:49.619Z,17.40
2018-08-17T22:25:54.447Z,17.35
2018-08-17T22:28:58.834Z,17.37
2018-08-17T22:32:03.374Z,17.32
2018-08-17T22:35:07.784Z,17.23
2018-08-17T22:38:12.230Z,17.18
2018-08-17T22:41:16.793Z,17.15
2018-08-17T22:44:23.268Z,17.12
2018-08-17T22:47:28.975Z,17.12
2018-08-17T22:50:33.356Z,17.16
2018-08-17T22:53:37.778Z,17.15
2018-08-17T22:56:42.226Z,17.16
2018-08-17T22:59:46.899Z,17.20
2018-08-17T23:02:52.893Z,17.26
2018-08-17T23:05:57.290Z,17.27
2018-08-17T23:09:01.705Z,17.26
2018-08-17T23:12:06.114Z,17.30
2018-08-17T23:15:11.513Z,17.28
2018-08-17T23:18:15.845Z,17.30
2018-08-17T23:21:20.412Z,17.36
2018-08-17T23:24:25.083Z,17.36
2018-08-17T23:27:29.525Z,17.34
2018-08-17T23:30:35.246Z,17.29
2018-08-17T23:33:39.614Z,17.30
2018-08-17T23:36:44.494Z,17.35
2018-08-17T23:39:48.874Z,17.33
2018-08-17T23:42:53.313Z,17.39
2018-08-17T23:45:57.678Z,17.39
2018-08-17T23:49:02.032Z,17.47
2018-08-17T23:52:06.491Z,17.38
2018-08-17T23:55:14.218Z,17.51
2018-08-17T23:58:18.801Z,17.35
